sensor_id;sensor_type;location;lat;lon;timestamp;pressure;altitude;pressure_sealevel;temperature;humidity
61676;BME280;47574;52.090;5.244;2023-04-24T00:01:45;99835.0;;;14.67;62.88
61676;BME280;47574;52.090;5.244;2023-04-24T00:03:21;99835.0;;;14.62;62.41
61676;BME280;47574;52.090;5.244;2023-04-24T00:04:58;99841.0;;;13.97;64.08
61676;BME280;47574;52.090;5.244;2023-04-24T00:06:35;99838.0;;;13.76;64.52
61676;BME280;47574;52.090;5.244;2023-04-24T00:09:48;99843.0;;;13.82;65.09
61676;BME280;47574;52.090;5.244;2023-04-24T00:11:25;99855.0;;;13.89;65.33
61676;BME280;47574;52.090;5.244;2023-04-24T00:13:02;99848.0;;;13.93;65.05
61676;BME280;47574;52.090;5.244;2023-04-24T00:16:14;99849.0;;;13.83;65.72
61676;BME280;47574;52.090;5.244;2023-04-24T00:17:50;99848.0;;;13.63;66.34
61676;BME280;47574;52.090;5.244;2023-04-24T00:19:26;99852.0;;;13.9;65.47
61676;BME280;47574;52.090;5.244;2023-04-24T00:22:41;99850.0;;;13.78;65.74
61676;BME280;47574;52.090;5.244;2023-04-24T00:24:17;99853.0;;;13.97;65.33
61676;BME280;47574;52.090;5.244;2023-04-24T00:25:54;99848.0;;;13.54;65.91
61676;BME280;47574;52.090;5.244;2023-04-24T00:27:30;99855.0;;;13.33;66.91
61676;BME280;47574;52.090;5.244;2023-04-24T00:30:45;99858.0;;;13.42;66.66
61676;BME280;47574;52.090;5.244;2023-04-24T00:32:21;99858.0;;;13.87;65.55
61676;BME280;47574;52.090;5.244;2023-04-24T00:33:57;99858.0;;;13.8;65.6
61676;BME280;47574;52.090;5.244;2023-04-24T00:37:10;99857.0;;;13.43;66.66
61676;BME280;47574;52.090;5.244;2023-04-24T00:38:46;99856.0;;;13.7;65.99
61676;BME280;47574;52.090;5.244;2023-04-24T00:40:22;99858.0;;;13.73;65.86
61676;BME280;47574;52.090;5.244;2023-04-24T00:43:36;99862.0;;;14.02;65.23
61676;BME280;47574;52.090;5.244;2023-04-24T00:45:12;99861.0;;;13.34;67.0
61676;BME280;47574;52.090;5.244;2023-04-24T00:46:49;99863.0;;;13.82;65.77
61676;BME280;47574;52.090;5.244;2023-04-24T00:48:26;99861.0;;;13.71;65.81
61676;BME280;47574;52.090;5.244;2023-04-24T00:51:42;99864.0;;;13.39;66.8
61676;BME280;47574;52.090;5.244;2023-04-24T00:53:19;99872.0;;;13.56;66.28
61676;BME280;47574;52.090;5.244;2023-04-24T00:54:56;99870.0;;;13.88;65.6
61676;BME280;47574;52.090;5.244;2023-04-24T00:58:10;99873.0;;;13.35;67.1
61676;BME280;47574;52.090;5.244;2023-04-24T00:59:47;99871.0;;;13.82;65.72
61676;BME280;47574;52.090;5.244;2023-04-24T01:01:23;99872.0;;;13.85;65.45
61676;BME280;47574;52.090;5.244;2023-04-24T01:04:41;99874.0;;;13.79;65.66
61676;BME280;47574;52.090;5.244;2023-04-24T01:06:18;99874.0;;;13.76;65.86
61676;BME280;47574;52.090;5.244;2023-04-24T01:07:56;99880.0;;;13.73;66.0
61676;BME280;47574;52.090;5.244;2023-04-24T01:09:33;99880.0;;;14.22;64.44
61676;BME280;47574;52.090;5.244;2023-04-24T01:12:47;99880.0;;;14.25;64.6
61676;BME280;47574;52.090;5.244;2023-04-24T01:14:23;99880.0;;;14.25;64.48
61676;BME280;47574;52.090;5.244;2023-04-24T01:16:01;99877.0;;;14.02;65.08
61676;BME280;47574;52.090;5.244;2023-04-24T01:19:16;99882.0;;;14.17;64.87
61676;BME280;47574;52.090;5.244;2023-04-24T01:20:57;99884.0;;;14.24;64.64
61676;BME280;47574;52.090;5.244;2023-04-24T01:22:39;99882.0;;;13.98;65.38
61676;BME280;47574;52.090;5.244;2023-04-24T01:24:16;99881.0;;;13.9;65.59
61676;BME280;47574;52.090;5.244;2023-04-24T01:27:31;99888.0;;;14.26;64.8
61676;BME280;47574;52.090;5.244;2023-04-24T01:29:08;99884.0;;;14.11;65.24
61676;BME280;47574;52.090;5.244;2023-04-24T01:30:45;99888.0;;;14.22;64.91
61676;BME280;47574;52.090;5.244;2023-04-24T01:32:22;99886.0;;;14.05;65.52
61676;BME280;47574;52.090;5.244;2023-04-24T01:35:36;99889.0;;;14.3;64.67
61676;BME280;47574;52.090;5.244;2023-04-24T01:37:13;99888.0;;;14.22;65.13
61676;BME280;47574;52.090;5.244;2023-04-24T01:38:50;99888.0;;;14.18;64.99
61676;BME280;47574;52.090;5.244;2023-04-24T01:42:04;99890.0;;;14.12;65.1
61676;BME280;47574;52.090;5.244;2023-04-24T01:43:41;99890.0;;;14.17;64.99
61676;BME280;47574;52.090;5.244;2023-04-24T01:45:18;99892.0;;;14.28;64.77
61676;BME280;47574;52.090;5.244;2023-04-24T01:48:32;99887.0;;;13.85;65.83
61676;BME280;47574;52.090;5.244;2023-04-24T01:50:10;99892.0;;;14.04;65.36
61676;BME280;47574;52.090;5.244;2023-04-24T01:51:47;99883.0;;;13.9;65.69
61676;BME280;47574;52.090;5.244;2023-04-24T01:53:24;99885.0;;;13.99;65.11
61676;BME280;47574;52.090;5.244;2023-04-24T01:56:41;99891.0;;;14.23;64.42
61676;BME280;47574;52.090;5.244;2023-04-24T01:58:19;99890.0;;;14.31;64.16
61676;BME280;47574;52.090;5.244;2023-04-24T01:59:56;99888.0;;;14.43;63.76
61676;BME280;47574;52.090;5.244;2023-04-24T02:03:11;99891.0;;;14.41;63.86
61676;BME280;47574;52.090;5.244;2023-04-24T02:04:47;99894.0;;;14.49;63.54
61676;BME280;47574;52.090;5.244;2023-04-24T02:06:23;99890.0;;;14.29;63.83
61676;BME280;47574;52.090;5.244;2023-04-24T02:07:59;99886.0;;;14.15;63.84
61676;BME280;47574;52.090;5.244;2023-04-24T02:11:13;99888.0;;;13.81;65.14
61676;BME280;47574;52.090;5.244;2023-04-24T02:12:49;99891.0;;;14.39;63.55
61676;BME280;47574;52.090;5.244;2023-04-24T02:14:26;99890.0;;;14.44;63.45
61676;BME280;47574;52.090;5.244;2023-04-24T02:17:38;99891.0;;;14.35;63.56
61676;BME280;47574;52.090;5.244;2023-04-24T02:19:15;99890.0;;;14.35;63.85
61676;BME280;47574;52.090;5.244;2023-04-24T02:20:52;99885.0;;;14.51;63.25
61676;BME280;47574;52.090;5.244;2023-04-24T02:24:05;99892.0;;;14.48;63.33
61676;BME280;47574;52.090;5.244;2023-04-24T02:25:42;99894.0;;;14.66;62.82
61676;BME280;47574;52.090;5.244;2023-04-24T02:28:55;99895.0;;;14.41;63.33
61676;BME280;47574;52.090;5.244;2023-04-24T02:32:09;99890.0;;;14.66;62.76
61676;BME280;47574;52.090;5.244;2023-04-24T02:33:45;99892.0;;;14.6;63.03
61676;BME280;47574;52.090;5.244;2023-04-24T02:35:21;99886.0;;;14.61;62.87
61676;BME280;47574;52.090;5.244;2023-04-24T02:38:35;99885.0;;;14.6;62.86
61676;BME280;47574;52.090;5.244;2023-04-24T02:40:12;99890.0;;;14.33;63.52
61676;BME280;47574;52.090;5.244;2023-04-24T02:41:49;99893.0;;;14.37;63.34
61676;BME280;47574;52.090;5.244;2023-04-24T02:45:03;99890.0;;;14.44;63.42
61676;BME280;47574;52.090;5.244;2023-04-24T02:46:39;99889.0;;;14.77;62.51
61676;BME280;47574;52.090;5.244;2023-04-24T02:48:16;99883.0;;;14.5;63.25
61676;BME280;47574;52.090;5.244;2023-04-24T02:49:52;99892.0;;;14.36;63.43
61676;BME280;47574;52.090;5.244;2023-04-24T02:53:06;99892.0;;;14.7;62.72
61676;BME280;47574;52.090;5.244;2023-04-24T02:54:43;99888.0;;;14.67;62.85
61676;BME280;47574;52.090;5.244;2023-04-24T02:56:19;99889.0;;;14.46;63.37
61676;BME280;47574;52.090;5.244;2023-04-24T02:59:32;99886.0;;;14.38;63.46
61676;BME280;47574;52.090;5.244;2023-04-24T03:01:08;99889.0;;;14.55;63.16
61676;BME280;47574;52.090;5.244;2023-04-24T03:02:45;99887.0;;;14.56;63.14
61676;BME280;47574;52.090;5.244;2023-04-24T03:05:59;99890.0;;;14.44;63.46
61676;BME280;47574;52.090;5.244;2023-04-24T03:07:35;99889.0;;;14.23;63.92
61676;BME280;47574;52.090;5.244;2023-04-24T03:09:12;99886.0;;;14.38;63.89
61676;BME280;47574;52.090;5.244;2023-04-24T03:10:49;99889.0;;;14.44;63.59
61676;BME280;47574;52.090;5.244;2023-04-24T03:15:39;99886.0;;;14.89;62.76
61676;BME280;47574;52.090;5.244;2023-04-24T03:17:17;99882.0;;;14.83;62.51
61676;BME280;47574;52.090;5.244;2023-04-24T03:20:30;99883.0;;;14.91;62.13
61676;BME280;47574;52.090;5.244;2023-04-24T03:22:07;99878.0;;;15.06;62.01
61676;BME280;47574;52.090;5.244;2023-04-24T03:23:44;99880.0;;;14.72;62.22
61676;BME280;47574;52.090;5.244;2023-04-24T03:25:20;99886.0;;;14.61;62.78
61676;BME280;47574;52.090;5.244;2023-04-24T03:28:35;99884.0;;;14.94;61.89
61676;BME280;47574;52.090;5.244;2023-04-24T03:30:12;99883.0;;;14.8;62.22
61676;BME280;47574;52.090;5.244;2023-04-24T03:31:49;99881.0;;;14.96;61.78
61676;BME280;47574;52.090;5.244;2023-04-24T03:35:02;99874.0;;;15.1;61.89
61676;BME280;47574;52.090;5.244;2023-04-24T03:36:39;99876.0;;;15.09;61.38
61676;BME280;47574;52.090;5.244;2023-04-24T03:38:15;99873.0;;;15.16;61.47
61676;BME280;47574;52.090;5.244;2023-04-24T03:41:29;99877.0;;;15.21;61.14
61676;BME280;47574;52.090;5.244;2023-04-24T03:43:05;99881.0;;;14.94;61.18
61676;BME280;47574;52.090;5.244;2023-04-24T03:44:41;99875.0;;;14.56;62.45
61676;BME280;47574;52.090;5.244;2023-04-24T03:46:18;99878.0;;;14.57;61.9
61676;BME280;47574;52.090;5.244;2023-04-24T03:49:32;99874.0;;;14.71;61.75
61676;BME280;47574;52.090;5.244;2023-04-24T03:51:08;99878.0;;;14.82;61.44
61676;BME280;47574;52.090;5.244;2023-04-24T03:52:46;99874.0;;;15.01;61.16
61676;BME280;47574;52.090;5.244;2023-04-24T03:55:59;99880.0;;;14.52;61.93
61676;BME280;47574;52.090;5.244;2023-04-24T03:57:35;99883.0;;;14.33;62.41
61676;BME280;47574;52.090;5.244;2023-04-24T03:59:12;99883.0;;;14.88;61.37
61676;BME280;47574;52.090;5.244;2023-04-24T04:02:25;99886.0;;;14.84;60.91
61676;BME280;47574;52.090;5.244;2023-04-24T04:04:02;99887.0;;;14.87;61.04
61676;BME280;47574;52.090;5.244;2023-04-24T04:05:38;99889.0;;;14.98;60.52
61676;BME280;47574;52.090;5.244;2023-04-24T04:07:15;99886.0;;;15.19;60.19
61676;BME280;47574;52.090;5.244;2023-04-24T04:10:29;99891.0;;;15.28;59.96
61676;BME280;47574;52.090;5.244;2023-04-24T04:12:06;99890.0;;;15.25;60.12
61676;BME280;47574;52.090;5.244;2023-04-24T04:13:43;99892.0;;;15.63;59.49
61676;BME280;47574;52.090;5.244;2023-04-24T04:16:58;99893.0;;;15.5;59.34
61676;BME280;47574;52.090;5.244;2023-04-24T04:18:34;99897.0;;;15.62;59.48
61676;BME280;47574;52.090;5.244;2023-04-24T04:20:11;99895.0;;;15.71;59.27
61676;BME280;47574;52.090;5.244;2023-04-24T04:21:47;99897.0;;;15.69;58.88
61676;BME280;47574;52.090;5.244;2023-04-24T04:24:59;99902.0;;;15.57;59.54
61676;BME280;47574;52.090;5.244;2023-04-24T04:26:37;99905.0;;;15.41;60.34
61676;BME280;47574;52.090;5.244;2023-04-24T04:28:14;99905.0;;;15.65;59.09
61676;BME280;47574;52.090;5.244;2023-04-24T04:31:27;99908.0;;;15.85;59.26
61676;BME280;47574;52.090;5.244;2023-04-24T04:33:03;99905.0;;;15.74;59.28
61676;BME280;47574;52.090;5.244;2023-04-24T04:34:39;99907.0;;;15.83;59.02
61676;BME280;47574;52.090;5.244;2023-04-24T04:37:51;99910.0;;;15.9;58.86
61676;BME280;47574;52.090;5.244;2023-04-24T04:39:27;99911.0;;;16.07;58.4
61676;BME280;47574;52.090;5.244;2023-04-24T04:41:04;99916.0;;;15.96;58.69
61676;BME280;47574;52.090;5.244;2023-04-24T04:44:16;99921.0;;;15.88;59.04
61676;BME280;47574;52.090;5.244;2023-04-24T04:45:52;99922.0;;;16.0;59.07
61676;BME280;47574;52.090;5.244;2023-04-24T04:47:28;99926.0;;;16.18;58.51
61676;BME280;47574;52.090;5.244;2023-04-24T04:49:04;99930.0;;;16.02;58.79
61676;BME280;47574;52.090;5.244;2023-04-24T04:52:16;99931.0;;;16.09;58.77
61676;BME280;47574;52.090;5.244;2023-04-24T04:53:53;99933.0;;;15.98;59.07
61676;BME280;47574;52.090;5.244;2023-04-24T04:55:30;99934.0;;;15.65;59.47
61676;BME280;47574;52.090;5.244;2023-04-24T04:58:42;99935.0;;;15.46;60.31
61676;BME280;47574;52.090;5.244;2023-04-24T05:00:18;99939.0;;;15.71;59.89
61676;BME280;47574;52.090;5.244;2023-04-24T05:01:55;99942.0;;;15.77;59.71
61676;BME280;47574;52.090;5.244;2023-04-24T05:05:08;99955.0;;;15.42;60.16
61676;BME280;47574;52.090;5.244;2023-04-24T05:06:45;99949.0;;;15.54;60.46
61676;BME280;47574;52.090;5.244;2023-04-24T05:08:21;99949.0;;;15.66;60.06
61676;BME280;47574;52.090;5.244;2023-04-24T05:09:57;99955.0;;;15.72;59.42
61676;BME280;47574;52.090;5.244;2023-04-24T05:13:09;99961.0;;;15.82;59.55
61676;BME280;47574;52.090;5.244;2023-04-24T05:14:45;99965.0;;;15.88;59.56
61676;BME280;47574;52.090;5.244;2023-04-24T05:16:21;99968.0;;;15.85;59.42
61676;BME280;47574;52.090;5.244;2023-04-24T05:19:34;99975.0;;;15.64;59.08
61676;BME280;47574;52.090;5.244;2023-04-24T05:21:10;99987.0;;;15.59;59.35
61676;BME280;47574;52.090;5.244;2023-04-24T05:22:47;99987.0;;;15.64;59.66
61676;BME280;47574;52.090;5.244;2023-04-24T05:25:59;99992.0;;;15.53;60.36
61676;BME280;47574;52.090;5.244;2023-04-24T05:27:35;99989.0;;;15.87;58.65
61676;BME280;47574;52.090;5.244;2023-04-24T05:29:12;100005.0;;;15.74;58.57
61676;BME280;47574;52.090;5.244;2023-04-24T05:34:00;100013.0;;;15.36;59.46
61676;BME280;47574;52.090;5.244;2023-04-24T05:35:37;100017.0;;;15.36;59.9
61676;BME280;47574;52.090;5.244;2023-04-24T05:37:13;100021.0;;;15.37;60.08
61676;BME280;47574;52.090;5.244;2023-04-24T05:40:25;100030.0;;;15.41;59.43
61676;BME280;47574;52.090;5.244;2023-04-24T05:42:01;100037.0;;;15.32;59.27
61676;BME280;47574;52.090;5.244;2023-04-24T05:43:38;100044.0;;;15.25;58.61
61676;BME280;47574;52.090;5.244;2023-04-24T05:46:51;100045.0;;;14.88;58.96
61676;BME280;47574;52.090;5.244;2023-04-24T05:48:27;100055.0;;;14.86;59.03
61676;BME280;47574;52.090;5.244;2023-04-24T05:50:04;100057.0;;;14.98;59.13
61676;BME280;47574;52.090;5.244;2023-04-24T05:53:17;100060.0;;;14.87;59.71
61676;BME280;47574;52.090;5.244;2023-04-24T05:54:53;100059.0;;;15.17;59.32
61676;BME280;47574;52.090;5.244;2023-04-24T05:56:29;100059.0;;;15.09;59.26
61676;BME280;47574;52.090;5.244;2023-04-24T05:58:06;100063.0;;;15.15;59.43
61676;BME280;47574;52.090;5.244;2023-04-24T06:01:19;100065.0;;;15.03;59.99
61676;BME280;47574;52.090;5.244;2023-04-24T06:02:55;100073.0;;;15.16;59.34
61676;BME280;47574;52.090;5.244;2023-04-24T06:04:31;100069.0;;;14.98;59.99
61676;BME280;47574;52.090;5.244;2023-04-24T06:07:44;100080.0;;;15.14;59.75
61676;BME280;47574;52.090;5.244;2023-04-24T06:10:56;100090.0;;;15.24;58.85
61676;BME280;47574;52.090;5.244;2023-04-24T06:14:09;100089.0;;;15.07;59.58
61676;BME280;47574;52.090;5.244;2023-04-24T06:15:45;100086.0;;;14.73;60.83
61676;BME280;47574;52.090;5.244;2023-04-24T06:17:21;100091.0;;;14.58;61.15
61676;BME280;47574;52.090;5.244;2023-04-24T06:18:57;100100.0;;;14.78;60.47
61676;BME280;47574;52.090;5.244;2023-04-24T06:22:09;100105.0;;;14.21;62.34
61676;BME280;47574;52.090;5.244;2023-04-24T06:23:45;100109.0;;;13.76;63.95
61676;BME280;47574;52.090;5.244;2023-04-24T06:25:24;100110.0;;;13.99;62.78
61676;BME280;47574;52.090;5.244;2023-04-24T06:28:37;100124.0;;;14.13;62.05
61676;BME280;47574;52.090;5.244;2023-04-24T06:30:13;100121.0;;;13.99;62.66
61676;BME280;47574;52.090;5.244;2023-04-24T06:31:50;100130.0;;;13.8;63.66
61676;BME280;47574;52.090;5.244;2023-04-24T06:35:03;100137.0;;;14.02;63.18
61676;BME280;47574;52.090;5.244;2023-04-24T06:36:40;100143.0;;;13.86;63.2
61676;BME280;47574;52.090;5.244;2023-04-24T06:38:16;100150.0;;;13.94;64.0
61676;BME280;47574;52.090;5.244;2023-04-24T06:39:52;100161.0;;;14.38;62.08
61676;BME280;47574;52.090;5.244;2023-04-24T06:43:04;100165.0;;;14.48;61.7
61676;BME280;47574;52.090;5.244;2023-04-24T06:44:40;100170.0;;;14.35;61.8
61676;BME280;47574;52.090;5.244;2023-04-24T06:46:16;100175.0;;;14.25;62.01
61676;BME280;47574;52.090;5.244;2023-04-24T06:49:28;100181.0;;;14.48;61.72
61676;BME280;47574;52.090;5.244;2023-04-24T06:51:05;100188.0;;;14.27;61.99
61676;BME280;47574;52.090;5.244;2023-04-24T06:52:41;100191.0;;;14.43;61.04
61676;BME280;47574;52.090;5.244;2023-04-24T06:55:53;100207.0;;;14.21;61.51
61676;BME280;47574;52.090;5.244;2023-04-24T06:57:29;100207.0;;;14.18;61.58
61676;BME280;47574;52.090;5.244;2023-04-24T06:59:06;100222.0;;;14.3;61.01
61676;BME280;47574;52.090;5.244;2023-04-24T07:02:18;100220.0;;;13.88;61.73
61676;BME280;47574;52.090;5.244;2023-04-24T07:03:55;100223.0;;;13.86;61.51
61676;BME280;47574;52.090;5.244;2023-04-24T07:05:31;100230.0;;;13.64;61.87
61676;BME280;47574;52.090;5.244;2023-04-24T07:07:07;100232.0;;;14.06;61.01
61676;BME280;47574;52.090;5.244;2023-04-24T07:10:19;100236.0;;;14.23;60.52
61676;BME280;47574;52.090;5.244;2023-04-24T07:11:55;100241.0;;;14.29;60.41
61676;BME280;47574;52.090;5.244;2023-04-24T07:13:31;100249.0;;;14.12;60.62
61676;BME280;47574;52.090;5.244;2023-04-24T07:16:45;100252.0;;;14.04;60.93
61676;BME280;47574;52.090;5.244;2023-04-24T07:18:22;100262.0;;;14.52;59.86
61676;BME280;47574;52.090;5.244;2023-04-24T07:19:58;100260.0;;;13.97;60.68
61676;BME280;47574;52.090;5.244;2023-04-24T07:23:10;100270.0;;;14.28;60.81
61676;BME280;47574;52.090;5.244;2023-04-24T07:24:46;100280.0;;;14.54;60.07
61676;BME280;47574;52.090;5.244;2023-04-24T07:26:22;100277.0;;;13.94;60.65
61676;BME280;47574;52.090;5.244;2023-04-24T07:28:00;100281.0;;;14.32;60.46
61676;BME280;47574;52.090;5.244;2023-04-24T07:31:12;100286.0;;;14.38;60.12
61676;BME280;47574;52.090;5.244;2023-04-24T07:32:49;100286.0;;;14.36;60.14
61676;BME280;47574;52.090;5.244;2023-04-24T07:34:25;100292.0;;;14.24;60.34
61676;BME280;47574;52.090;5.244;2023-04-24T07:37:37;100293.0;;;14.59;59.34
61676;BME280;47574;52.090;5.244;2023-04-24T07:39:15;100302.0;;;14.15;60.62
61676;BME280;47574;52.090;5.244;2023-04-24T07:40:51;100306.0;;;14.47;60.26
61676;BME280;47574;52.090;5.244;2023-04-24T07:44:04;100306.0;;;14.28;60.71
61676;BME280;47574;52.090;5.244;2023-04-24T07:45:40;100316.0;;;14.41;60.84
61676;BME280;47574;52.090;5.244;2023-04-24T07:47:16;100322.0;;;14.34;60.92
61676;BME280;47574;52.090;5.244;2023-04-24T07:50:29;100326.0;;;14.07;60.96
61676;BME280;47574;52.090;5.244;2023-04-24T07:52:05;100328.0;;;13.85;61.58
61676;BME280;47574;52.090;5.244;2023-04-24T07:53:43;100340.0;;;14.34;60.63
61676;BME280;47574;52.090;5.244;2023-04-24T07:55:19;100334.0;;;14.38;60.7
61676;BME280;47574;52.090;5.244;2023-04-24T07:58:32;100336.0;;;14.34;61.0
61676;BME280;47574;52.090;5.244;2023-04-24T08:00:09;100340.0;;;14.42;60.87
61676;BME280;47574;52.090;5.244;2023-04-24T08:01:45;100348.0;;;14.54;60.24
61676;BME280;47574;52.090;5.244;2023-04-24T08:04:57;100348.0;;;14.29;60.41
61676;BME280;47574;52.090;5.244;2023-04-24T08:06:34;100352.0;;;14.12;61.21
61676;BME280;47574;52.090;5.244;2023-04-24T08:08:10;100366.0;;;13.65;61.73
61676;BME280;47574;52.090;5.244;2023-04-24T08:11:22;100360.0;;;13.94;61.01
61676;BME280;47574;52.090;5.244;2023-04-24T08:12:59;100376.0;;;14.24;60.67
61676;BME280;47574;52.090;5.244;2023-04-24T08:14:35;100382.0;;;14.14;59.82
61676;BME280;47574;52.090;5.244;2023-04-24T08:16:12;100390.0;;;13.83;59.96
61676;BME280;47574;52.090;5.244;2023-04-24T08:19:24;100395.0;;;13.94;59.69
61676;BME280;47574;52.090;5.244;2023-04-24T08:21:00;100396.0;;;13.82;59.5
61676;BME280;47574;52.090;5.244;2023-04-24T08:22:36;100405.0;;;13.98;59.2
61676;BME280;47574;52.090;5.244;2023-04-24T08:25:48;100409.0;;;13.72;59.97
61676;BME280;47574;52.090;5.244;2023-04-24T08:27:25;100415.0;;;14.02;59.4
61676;BME280;47574;52.090;5.244;2023-04-24T08:29:02;100415.0;;;14.3;58.95
61676;BME280;47574;52.090;5.244;2023-04-24T08:32:15;100428.0;;;14.32;59.27
61676;BME280;47574;52.090;5.244;2023-04-24T08:33:51;100436.0;;;14.1;58.84
61676;BME280;47574;52.090;5.244;2023-04-24T08:35:27;100432.0;;;14.45;58.42
61676;BME280;47574;52.090;5.244;2023-04-24T08:37:03;100451.0;;;14.23;58.78
61676;BME280;47574;52.090;5.244;2023-04-24T08:40:16;100449.0;;;13.69;57.16
61676;BME280;47574;52.090;5.244;2023-04-24T08:41:53;100455.0;;;13.69;56.32
61676;BME280;47574;52.090;5.244;2023-04-24T08:43:30;100455.0;;;13.8;56.34
61676;BME280;47574;52.090;5.244;2023-04-24T08:46:48;100461.0;;;14.06;55.94
61676;BME280;47574;52.090;5.244;2023-04-24T08:48:24;100460.0;;;14.34;55.03
61676;BME280;47574;52.090;5.244;2023-04-24T08:50:02;100463.0;;;14.31;55.28
61676;BME280;47574;52.090;5.244;2023-04-24T08:53:15;100473.0;;;14.43;55.97
61676;BME280;47574;52.090;5.244;2023-04-24T08:54:53;100471.0;;;13.95;55.24
61676;BME280;47574;52.090;5.244;2023-04-24T08:56:33;100480.0;;;14.21;55.12
61676;BME280;47574;52.090;5.244;2023-04-24T08:58:10;100481.0;;;14.07;55.24
61676;BME280;47574;52.090;5.244;2023-04-24T09:01:23;100480.0;;;14.16;55.01
61676;BME280;47574;52.090;5.244;2023-04-24T09:03:01;100473.0;;;14.63;55.3
61676;BME280;47574;52.090;5.244;2023-04-24T09:04:40;100484.0;;;14.71;54.58
61676;BME280;47574;52.090;5.244;2023-04-24T09:06:19;100486.0;;;14.37;54.75
61676;BME280;47574;52.090;5.244;2023-04-24T09:09:38;100489.0;;;14.36;54.87
61676;BME280;47574;52.090;5.244;2023-04-24T09:11:15;100498.0;;;14.33;54.05
61676;BME280;47574;52.090;5.244;2023-04-24T09:12:52;100498.0;;;14.09;55.18
61676;BME280;47574;52.090;5.244;2023-04-24T09:16:06;100505.0;;;13.99;54.95
61676;BME280;47574;52.090;5.244;2023-04-24T09:17:43;100497.0;;;14.37;54.67
61676;BME280;47574;52.090;5.244;2023-04-24T09:19:19;100505.0;;;14.3;55.67
61676;BME280;47574;52.090;5.244;2023-04-24T09:22:34;100506.0;;;14.58;54.75
61676;BME280;47574;52.090;5.244;2023-04-24T09:24:15;100505.0;;;14.5;54.47
61676;BME280;47574;52.090;5.244;2023-04-24T09:25:54;100511.0;;;14.71;53.89
61676;BME280;47574;52.090;5.244;2023-04-24T09:27:31;100511.0;;;14.61;52.95
61676;BME280;47574;52.090;5.244;2023-04-24T09:31:02;100513.0;;;14.76;53.3
61676;BME280;47574;52.090;5.244;2023-04-24T09:32:39;100517.0;;;14.93;52.15
61676;BME280;47574;52.090;5.244;2023-04-24T09:34:20;100518.0;;;14.78;53.41
61676;BME280;47574;52.090;5.244;2023-04-24T09:35:58;100518.0;;;14.96;52.9
61676;BME280;47574;52.090;5.244;2023-04-24T09:39:13;100524.0;;;14.46;53.59
61676;BME280;47574;52.090;5.244;2023-04-24T09:40:51;100530.0;;;14.48;52.86
61676;BME280;47574;52.090;5.244;2023-04-24T09:42:28;100536.0;;;14.27;53.27
61676;BME280;47574;52.090;5.244;2023-04-24T09:44:12;100541.0;;;14.81;52.44
61676;BME280;47574;52.090;5.244;2023-04-24T09:47:25;100535.0;;;14.73;52.17
61676;BME280;47574;52.090;5.244;2023-04-24T09:49:07;100546.0;;;14.5;52.48
61676;BME280;47574;52.090;5.244;2023-04-24T09:50:46;100542.0;;;14.33;52.59
61676;BME280;47574;52.090;5.244;2023-04-24T09:52:22;100553.0;;;14.54;53.79
61676;BME280;47574;52.090;5.244;2023-04-24T09:55:39;100555.0;;;14.72;50.99
61676;BME280;47574;52.090;5.244;2023-04-24T09:57:15;100557.0;;;14.72;50.64
61676;BME280;47574;52.090;5.244;2023-04-24T09:58:51;100551.0;;;14.49;51.6
61676;BME280;47574;52.090;5.244;2023-04-24T10:02:17;100559.0;;;14.69;50.89
61676;BME280;47574;52.090;5.244;2023-04-24T10:03:53;100569.0;;;14.83;50.67
61676;BME280;47574;52.090;5.244;2023-04-24T10:05:31;100557.0;;;14.69;51.39
61676;BME280;47574;52.090;5.244;2023-04-24T10:07:08;100577.0;;;14.49;50.42
61676;BME280;47574;52.090;5.244;2023-04-24T10:10:21;100584.0;;;14.43;51.35
61676;BME280;47574;52.090;5.244;2023-04-24T10:11:59;100588.0;;;14.52;51.32
61676;BME280;47574;52.090;5.244;2023-04-24T10:13:35;100587.0;;;14.62;51.15
61676;BME280;47574;52.090;5.244;2023-04-24T10:16:50;100597.0;;;14.63;51.72
61676;BME280;47574;52.090;5.244;2023-04-24T10:18:29;100602.0;;;14.46;51.94
61676;BME280;47574;52.090;5.244;2023-04-24T10:20:06;100602.0;;;14.47;52.2
61676;BME280;47574;52.090;5.244;2023-04-24T10:21:43;100601.0;;;14.65;52.97
61676;BME280;47574;52.090;5.244;2023-04-24T10:24:58;100595.0;;;14.33;52.26
61676;BME280;47574;52.090;5.244;2023-04-24T10:26:35;100596.0;;;14.29;51.51
61676;BME280;47574;52.090;5.244;2023-04-24T10:28:11;100598.0;;;14.31;51.91
61676;BME280;47574;52.090;5.244;2023-04-24T10:31:31;100599.0;;;14.37;50.78
61676;BME280;47574;52.090;5.244;2023-04-24T10:33:08;100596.0;;;14.8;49.91
61676;BME280;47574;52.090;5.244;2023-04-24T10:34:45;100605.0;;;15.09;49.15
61676;BME280;47574;52.090;5.244;2023-04-24T10:36:22;100606.0;;;15.01;50.55
61676;BME280;47574;52.090;5.244;2023-04-24T10:39:41;100608.0;;;15.23;50.36
61676;BME280;47574;52.090;5.244;2023-04-24T10:41:17;100605.0;;;14.45;50.92
61676;BME280;47574;52.090;5.244;2023-04-24T10:42:55;100614.0;;;14.46;50.84
61676;BME280;47574;52.090;5.244;2023-04-24T10:46:19;100608.0;;;14.8;50.53
61676;BME280;47574;52.090;5.244;2023-04-24T10:47:57;100612.0;;;14.63;50.46
61676;BME280;47574;52.090;5.244;2023-04-24T10:49:34;100611.0;;;14.95;50.38
61676;BME280;47574;52.090;5.244;2023-04-24T10:51:12;100619.0;;;15.08;50.24
61676;BME280;47574;52.090;5.244;2023-04-24T10:54:26;100621.0;;;14.94;49.78
61676;BME280;47574;52.090;5.244;2023-04-24T10:56:05;100630.0;;;14.91;49.52
61676;BME280;47574;52.090;5.244;2023-04-24T10:58:01;100624.0;;;15.06;49.87
61676;BME280;47574;52.090;5.244;2023-04-24T10:59:38;100619.0;;;15.24;48.54
61676;BME280;47574;52.090;5.244;2023-04-24T11:03:23;100619.0;;;15.24;49.1
61676;BME280;47574;52.090;5.244;2023-04-24T11:05:02;100621.0;;;15.31;48.69
61676;BME280;47574;52.090;5.244;2023-04-24T11:06:40;100620.0;;;15.12;49.9
61676;BME280;47574;52.090;5.244;2023-04-24T11:08:24;100626.0;;;15.18;49.97
61676;BME280;47574;52.090;5.244;2023-04-24T11:10:00;100632.0;;;15.16;49.9
61676;BME280;47574;52.090;5.244;2023-04-24T11:13:16;100655.0;;;15.45;51.0
61676;BME280;47574;52.090;5.244;2023-04-24T11:15:00;100653.0;;;14.91;53.04
61676;BME280;47574;52.090;5.244;2023-04-24T11:16:42;100662.0;;;14.73;54.12
61676;BME280;47574;52.090;5.244;2023-04-24T11:18:37;100660.0;;;14.73;54.76